sensor_id;sensor_type;location;lat;lon;timestamp;P1;durP1;ratioP1;P2;durP2;ratioP2
46439;SDS011;32138;50.966;6.968;2023-11-18T00:00:21;49.42;;;27.25;;
46439;SDS011;32138;50.966;6.968;2023-11-18T00:01:52;51.03;;;28.05;;
46439;SDS011;32138;50.966;6.968;2023-11-18T00:03:22;46.65;;;25.75;;
46439;SDS011;32138;50.966;6.968;2023-11-18T00:04:53;51.30;;;27.17;;
46439;SDS011;32138;50.966;6.968;2023-11-18T00:06:24;46.97;;;26.40;;
46439;SDS011;32138;50.966;6.968;2023-11-18T00:07:55;49.55;;;27.42;;
46439;SDS011;32138;50.966;6.968;2023-11-18T00:09:25;55.53;;;27.90;;
46439;SDS011;32138;50.966;6.968;2023-11-18T00:10:56;41.97;;;25.63;;
46439;SDS011;32138;50.966;6.968;2023-11-18T00:12:27;45.42;;;25.92;;
46439;SDS011;32138;50.966;6.968;2023-11-18T00:13:57;42.67;;;23.58;;
46439;SDS011;32138;50.966;6.968;2023-11-18T00:15:29;45.47;;;24.88;;
46439;SDS011;32138;50.966;6.968;2023-11-18T00:17:00;39.88;;;22.85;;
46439;SDS011;32138;50.966;6.968;2023-11-18T00:18:32;39.90;;;23.05;;
46439;SDS011;32138;50.966;6.968;2023-11-18T00:20:04;42.72;;;22.58;;
46439;SDS011;32138;50.966;6.968;2023-11-18T00:21:39;38.20;;;23.48;;
46439;SDS011;32138;50.966;6.968;2023-11-18T00:23:10;36.33;;;21.10;;
46439;SDS011;32138;50.966;6.968;2023-11-18T00:24:41;42.80;;;23.45;;
46439;SDS011;32138;50.966;6.968;2023-11-18T00:26:13;37.47;;;21.48;;
46439;SDS011;32138;50.966;6.968;2023-11-18T00:27:44;35.00;;;21.70;;
46439;SDS011;32138;50.966;6.968;2023-11-18T00:29:15;41.63;;;22.38;;
46439;SDS011;32138;50.966;6.968;2023-11-18T00:30:46;52.22;;;25.85;;
46439;SDS011;32138;50.966;6.968;2023-11-18T00:32:16;34.53;;;21.50;;
46439;SDS011;32138;50.966;6.968;2023-11-18T00:33:47;39.17;;;22.70;;
46439;SDS011;32138;50.966;6.968;2023-11-18T00:35:18;42.53;;;25.42;;
46439;SDS011;32138;50.966;6.968;2023-11-18T00:36:48;54.15;;;26.48;;
46439;SDS011;32138;50.966;6.968;2023-11-18T00:38:19;42.35;;;23.52;;
46439;SDS011;32138;50.966;6.968;2023-11-18T00:39:50;48.90;;;25.88;;
46439;SDS011;32138;50.966;6.968;2023-11-18T00:41:21;37.75;;;23.20;;
46439;SDS011;32138;50.966;6.968;2023-11-18T00:42:53;49.42;;;25.80;;
46439;SDS011;32138;50.966;6.968;2023-11-18T00:44:23;52.88;;;27.67;;
46439;SDS011;32138;50.966;6.968;2023-11-18T00:45:54;49.75;;;26.83;;
46439;SDS011;32138;50.966;6.968;2023-11-18T00:47:29;60.70;;;30.27;;
46439;SDS011;32138;50.966;6.968;2023-11-18T00:49:00;57.17;;;29.88;;
46439;SDS011;32138;50.966;6.968;2023-11-18T00:50:31;71.00;;;32.63;;
46439;SDS011;32138;50.966;6.968;2023-11-18T00:52:03;45.55;;;27.70;;
46439;SDS011;32138;50.966;6.968;2023-11-18T00:53:34;47.33;;;26.77;;
46439;SDS011;32138;50.966;6.968;2023-11-18T00:55:05;59.50;;;31.30;;
46439;SDS011;32138;50.966;6.968;2023-11-18T00:56:38;51.97;;;28.00;;
46439;SDS011;32138;50.966;6.968;2023-11-18T00:58:08;57.28;;;29.10;;
46439;SDS011;32138;50.966;6.968;2023-11-18T00:59:42;52.35;;;28.02;;
46439;SDS011;32138;50.966;6.968;2023-11-18T01:01:13;50.63;;;26.95;;
46439;SDS011;32138;50.966;6.968;2023-11-18T01:02:48;50.15;;;26.08;;
46439;SDS011;32138;50.966;6.968;2023-11-18T01:04:19;50.30;;;27.10;;
46439;SDS011;32138;50.966;6.968;2023-11-18T01:05:50;51.22;;;24.40;;
46439;SDS011;32138;50.966;6.968;2023-11-18T01:07:21;45.08;;;25.00;;
46439;SDS011;32138;50.966;6.968;2023-11-18T01:08:52;49.72;;;25.33;;
46439;SDS011;32138;50.966;6.968;2023-11-18T01:10:23;46.33;;;26.60;;
46439;SDS011;32138;50.966;6.968;2023-11-18T01:11:53;51.00;;;27.58;;
46439;SDS011;32138;50.966;6.968;2023-11-18T01:13:24;49.90;;;26.85;;
46439;SDS011;32138;50.966;6.968;2023-11-18T01:14:56;49.92;;;28.90;;
46439;SDS011;32138;50.966;6.968;2023-11-18T01:16:27;49.33;;;26.67;;
46439;SDS011;32138;50.966;6.968;2023-11-18T01:17:58;49.33;;;26.20;;
46439;SDS011;32138;50.966;6.968;2023-11-18T01:19:29;45.63;;;25.17;;
46439;SDS011;32138;50.966;6.968;2023-11-18T01:21:00;44.83;;;25.45;;
46439;SDS011;32138;50.966;6.968;2023-11-18T01:22:30;49.38;;;26.17;;
46439;SDS011;32138;50.966;6.968;2023-11-18T01:24:04;64.72;;;28.95;;
46439;SDS011;32138;50.966;6.968;2023-11-18T01:25:36;40.53;;;23.77;;
46439;SDS011;32138;50.966;6.968;2023-11-18T01:27:07;46.67;;;25.52;;
46439;SDS011;32138;50.966;6.968;2023-11-18T01:28:39;46.92;;;24.63;;
46439;SDS011;32138;50.966;6.968;2023-11-18T01:30:13;45.00;;;24.63;;
46439;SDS011;32138;50.966;6.968;2023-11-18T01:31:45;44.25;;;25.13;;
46439;SDS011;32138;50.966;6.968;2023-11-18T01:33:15;43.30;;;25.42;;
46439;SDS011;32138;50.966;6.968;2023-11-18T01:34:46;43.55;;;24.77;;
46439;SDS011;32138;50.966;6.968;2023-11-18T01:36:20;43.58;;;24.88;;
46439;SDS011;32138;50.966;6.968;2023-11-18T01:37:51;42.35;;;24.48;;
46439;SDS011;32138;50.966;6.968;2023-11-18T01:39:21;42.17;;;23.23;;
46439;SDS011;32138;50.966;6.968;2023-11-18T01:40:52;44.10;;;24.02;;
46439;SDS011;32138;50.966;6.968;2023-11-18T01:42:23;43.38;;;23.90;;
46439;SDS011;32138;50.966;6.968;2023-11-18T01:43:54;40.38;;;23.17;;
46439;SDS011;32138;50.966;6.968;2023-11-18T01:45:24;41.00;;;24.55;;
46439;SDS011;32138;50.966;6.968;2023-11-18T01:46:57;44.65;;;24.20;;
46439;SDS011;32138;50.966;6.968;2023-11-18T01:48:29;36.92;;;22.92;;
46439;SDS011;32138;50.966;6.968;2023-11-18T01:50:01;44.60;;;23.92;;
46439;SDS011;32138;50.966;6.968;2023-11-18T01:51:32;44.17;;;24.30;;
46439;SDS011;32138;50.966;6.968;2023-11-18T01:53:05;39.40;;;23.60;;
46439;SDS011;32138;50.966;6.968;2023-11-18T01:54:37;41.80;;;24.15;;
46439;SDS011;32138;50.966;6.968;2023-11-18T01:56:09;46.50;;;26.13;;
46439;SDS011;32138;50.966;6.968;2023-11-18T01:57:41;42.53;;;24.27;;
46439;SDS011;32138;50.966;6.968;2023-11-18T01:59:13;41.17;;;24.05;;
46439;SDS011;32138;50.966;6.968;2023-11-18T02:00:48;37.78;;;23.38;;
46439;SDS011;32138;50.966;6.968;2023-11-18T02:02:21;45.25;;;25.65;;
46439;SDS011;32138;50.966;6.968;2023-11-18T02:03:52;45.75;;;25.27;;
46439;SDS011;32138;50.966;6.968;2023-11-18T02:05:23;42.10;;;23.13;;
46439;SDS011;32138;50.966;6.968;2023-11-18T02:06:53;42.15;;;23.15;;
46439;SDS011;32138;50.966;6.968;2023-11-18T02:08:26;44.25;;;24.55;;
46439;SDS011;32138;50.966;6.968;2023-11-18T02:09:57;40.10;;;22.55;;
46439;SDS011;32138;50.966;6.968;2023-11-18T02:11:30;41.85;;;23.50;;
46439;SDS011;32138;50.966;6.968;2023-11-18T02:13:12;45.97;;;23.75;;
46439;SDS011;32138;50.966;6.968;2023-11-18T02:14:56;43.45;;;22.25;;
46439;SDS011;32138;50.966;6.968;2023-11-18T02:16:30;42.65;;;21.70;;
46439;SDS011;32138;50.966;6.968;2023-11-18T02:18:02;44.65;;;24.48;;
46439;SDS011;32138;50.966;6.968;2023-11-18T02:19:37;46.55;;;26.33;;
46439;SDS011;32138;50.966;6.968;2023-11-18T02:21:09;43.55;;;24.55;;
46439;SDS011;32138;50.966;6.968;2023-11-18T02:22:44;44.85;;;25.35;;
46439;SDS011;32138;50.966;6.968;2023-11-18T02:24:28;39.97;;;23.40;;
46439;SDS011;32138;50.966;6.968;2023-11-18T02:26:03;39.50;;;23.10;;
46439;SDS011;32138;50.966;6.968;2023-11-18T02:27:35;40.53;;;24.42;;
46439;SDS011;32138;50.966;6.968;2023-11-18T02:29:07;42.85;;;23.60;;
46439;SDS011;32138;50.966;6.968;2023-11-18T02:30:39;44.58;;;23.42;;
46439;SDS011;32138;50.966;6.968;2023-11-18T02:34:05;44.55;;;23.80;;
46439;SDS011;32138;50.966;6.968;2023-11-18T02:35:51;42.03;;;24.08;;
46439;SDS011;32138;50.966;6.968;2023-11-18T02:37:27;38.03;;;22.55;;
46439;SDS011;32138;50.966;6.968;2023-11-18T02:39:06;36.72;;;22.80;;
46439;SDS011;32138;50.966;6.968;2023-11-18T02:40:47;44.40;;;23.42;;
46439;SDS011;32138;50.966;6.968;2023-11-18T02:42:23;41.67;;;23.83;;
46439;SDS011;32138;50.966;6.968;2023-11-18T02:43:54;39.05;;;23.17;;
46439;SDS011;32138;50.966;6.968;2023-11-18T02:45:28;42.78;;;22.92;;
46439;SDS011;32138;50.966;6.968;2023-11-18T02:46:59;43.92;;;24.15;;
46439;SDS011;32138;50.966;6.968;2023-11-18T02:48:30;44.83;;;23.95;;
46439;SDS011;32138;50.966;6.968;2023-11-18T02:50:02;41.58;;;24.52;;
46439;SDS011;32138;50.966;6.968;2023-11-18T02:51:36;42.30;;;25.85;;
46439;SDS011;32138;50.966;6.968;2023-11-18T02:53:09;44.08;;;24.80;;
46439;SDS011;32138;50.966;6.968;2023-11-18T02:54:39;42.28;;;25.48;;
46439;SDS011;32138;50.966;6.968;2023-11-18T02:56:10;44.10;;;24.55;;
46439;SDS011;32138;50.966;6.968;2023-11-18T02:57:41;45.42;;;24.27;;
46439;SDS011;32138;50.966;6.968;2023-11-18T02:59:12;39.13;;;24.67;;
46439;SDS011;32138;50.966;6.968;2023-11-18T03:00:43;43.20;;;25.08;;
46439;SDS011;32138;50.966;6.968;2023-11-18T03:02:14;42.47;;;24.27;;
46439;SDS011;32138;50.966;6.968;2023-11-18T03:03:45;40.20;;;23.17;;
46439;SDS011;32138;50.966;6.968;2023-11-18T03:05:16;42.25;;;25.17;;
46439;SDS011;32138;50.966;6.968;2023-11-18T03:06:47;48.83;;;25.38;;
46439;SDS011;32138;50.966;6.968;2023-11-18T03:08:18;47.67;;;24.40;;
46439;SDS011;32138;50.966;6.968;2023-11-18T03:09:49;43.88;;;24.63;;
46439;SDS011;32138;50.966;6.968;2023-11-18T03:11:20;40.08;;;21.65;;
46439;SDS011;32138;50.966;6.968;2023-11-18T03:12:51;47.80;;;27.23;;
46439;SDS011;32138;50.966;6.968;2023-11-18T03:14:24;40.38;;;23.75;;
46439;SDS011;32138;50.966;6.968;2023-11-18T03:15:54;35.50;;;22.38;;
46439;SDS011;32138;50.966;6.968;2023-11-18T03:17:25;40.50;;;23.25;;
46439;SDS011;32138;50.966;6.968;2023-11-18T03:18:57;42.38;;;22.58;;
46439;SDS011;32138;50.966;6.968;2023-11-18T03:20:28;39.15;;;22.88;;
46439;SDS011;32138;50.966;6.968;2023-11-18T03:22:00;45.00;;;25.33;;
46439;SDS011;32138;50.966;6.968;2023-11-18T03:23:32;43.33;;;25.60;;
46439;SDS011;32138;50.966;6.968;2023-11-18T03:25:02;42.45;;;23.17;;
46439;SDS011;32138;50.966;6.968;2023-11-18T03:26:35;40.40;;;22.60;;
46439;SDS011;32138;50.966;6.968;2023-11-18T03:28:06;41.33;;;22.90;;
46439;SDS011;32138;50.966;6.968;2023-11-18T03:29:37;40.92;;;23.90;;
46439;SDS011;32138;50.966;6.968;2023-11-18T03:31:09;44.53;;;24.45;;
46439;SDS011;32138;50.966;6.968;2023-11-18T03:32:41;44.72;;;25.67;;
46439;SDS011;32138;50.966;6.968;2023-11-18T03:34:12;45.03;;;22.75;;
46439;SDS011;32138;50.966;6.968;2023-11-18T03:35:43;45.13;;;24.23;;
46439;SDS011;32138;50.966;6.968;2023-11-18T03:37:14;43.88;;;24.70;;
46439;SDS011;32138;50.966;6.968;2023-11-18T03:38:44;40.10;;;24.40;;
46439;SDS011;32138;50.966;6.968;2023-11-18T03:40:15;39.42;;;24.15;;
46439;SDS011;32138;50.966;6.968;2023-11-18T03:41:46;41.60;;;23.48;;
46439;SDS011;32138;50.966;6.968;2023-11-18T03:43:16;39.53;;;22.90;;
46439;SDS011;32138;50.966;6.968;2023-11-18T03:44:48;39.72;;;23.50;;
46439;SDS011;32138;50.966;6.968;2023-11-18T03:46:19;39.00;;;23.27;;
46439;SDS011;32138;50.966;6.968;2023-11-18T03:47:49;40.00;;;23.38;;
46439;SDS011;32138;50.966;6.968;2023-11-18T03:49:20;42.75;;;24.98;;
46439;SDS011;32138;50.966;6.968;2023-11-18T03:50:51;38.10;;;22.75;;
46439;SDS011;32138;50.966;6.968;2023-11-18T03:52:22;38.90;;;23.45;;
46439;SDS011;32138;50.966;6.968;2023-11-18T03:53:53;41.42;;;23.05;;
46439;SDS011;32138;50.966;6.968;2023-11-18T03:55:24;43.72;;;25.95;;
46439;SDS011;32138;50.966;6.968;2023-11-18T03:56:56;37.70;;;22.83;;
46439;SDS011;32138;50.966;6.968;2023-11-18T03:58:26;36.15;;;21.23;;
46439;SDS011;32138;50.966;6.968;2023-11-18T03:59:57;38.90;;;23.58;;
46439;SDS011;32138;50.966;6.968;2023-11-18T04:01:28;46.20;;;24.35;;
46439;SDS011;32138;50.966;6.968;2023-11-18T04:02:59;34.40;;;19.92;;
46439;SDS011;32138;50.966;6.968;2023-11-18T04:04:30;38.65;;;21.80;;
46439;SDS011;32138;50.966;6.968;2023-11-18T04:06:00;37.85;;;23.23;;
46439;SDS011;32138;50.966;6.968;2023-11-18T04:07:33;40.75;;;22.58;;
46439;SDS011;32138;50.966;6.968;2023-11-18T04:09:04;34.95;;;22.80;;
46439;SDS011;32138;50.966;6.968;2023-11-18T04:10:35;35.03;;;22.00;;
46439;SDS011;32138;50.966;6.968;2023-11-18T04:12:07;40.05;;;23.02;;
46439;SDS011;32138;50.966;6.968;2023-11-18T04:13:38;33.67;;;21.58;;
46439;SDS011;32138;50.966;6.968;2023-11-18T04:15:09;40.22;;;23.98;;
46439;SDS011;32138;50.966;6.968;2023-11-18T04:16:41;37.95;;;23.48;;
46439;SDS011;32138;50.966;6.968;2023-11-18T04:18:11;39.75;;;23.90;;
46439;SDS011;32138;50.966;6.968;2023-11-18T04:19:42;39.67;;;24.20;;
46439;SDS011;32138;50.966;6.968;2023-11-18T04:21:13;37.15;;;19.75;;
46439;SDS011;32138;50.966;6.968;2023-11-18T04:22:44;40.15;;;23.23;;
46439;SDS011;32138;50.966;6.968;2023-11-18T04:24:15;37.00;;;22.70;;
46439;SDS011;32138;50.966;6.968;2023-11-18T04:25:46;38.17;;;23.67;;
46439;SDS011;32138;50.966;6.968;2023-11-18T04:27:16;35.28;;;23.15;;
46439;SDS011;32138;50.966;6.968;2023-11-18T04:28:47;40.17;;;25.17;;
46439;SDS011;32138;50.966;6.968;2023-11-18T04:30:18;40.40;;;23.90;;
46439;SDS011;32138;50.966;6.968;2023-11-18T04:31:49;38.03;;;23.20;;
46439;SDS011;32138;50.966;6.968;2023-11-18T04:33:19;38.83;;;22.85;;
46439;SDS011;32138;50.966;6.968;2023-11-18T04:34:50;37.80;;;22.92;;
46439;SDS011;32138;50.966;6.968;2023-11-18T04:36:21;33.20;;;21.10;;
46439;SDS011;32138;50.966;6.968;2023-11-18T04:37:52;37.47;;;23.63;;
46439;SDS011;32138;50.966;6.968;2023-11-18T04:39:23;35.42;;;21.33;;
46439;SDS011;32138;50.966;6.968;2023-11-18T04:40:55;38.88;;;22.67;;
46439;SDS011;32138;50.966;6.968;2023-11-18T04:42:26;35.33;;;22.38;;
46439;SDS011;32138;50.966;6.968;2023-11-18T04:43:59;40.78;;;22.85;;
46439;SDS011;32138;50.966;6.968;2023-11-18T04:45:30;35.25;;;23.45;;
46439;SDS011;32138;50.966;6.968;2023-11-18T04:47:01;34.20;;;21.90;;
46439;SDS011;32138;50.966;6.968;2023-11-18T04:48:32;35.85;;;22.17;;
46439;SDS011;32138;50.966;6.968;2023-11-18T04:50:04;40.25;;;24.10;;
46439;SDS011;32138;50.966;6.968;2023-11-18T04:51:35;35.78;;;22.67;;
46439;SDS011;32138;50.966;6.968;2023-11-18T04:53:06;36.08;;;22.40;;
46439;SDS011;32138;50.966;6.968;2023-11-18T04:54:40;38.13;;;22.35;;
46439;SDS011;32138;50.966;6.968;2023-11-18T04:56:11;38.65;;;22.95;;
46439;SDS011;32138;50.966;6.968;2023-11-18T04:57:43;34.30;;;21.08;;
46439;SDS011;32138;50.966;6.968;2023-11-18T04:59:14;38.35;;;22.90;;
46439;SDS011;32138;50.966;6.968;2023-11-18T05:00:44;35.92;;;20.98;;
46439;SDS011;32138;50.966;6.968;2023-11-18T05:02:15;38.35;;;24.10;;
46439;SDS011;32138;50.966;6.968;2023-11-18T05:03:46;38.28;;;23.60;;
46439;SDS011;32138;50.966;6.968;2023-11-18T05:05:17;31.63;;;20.52;;
46439;SDS011;32138;50.966;6.968;2023-11-18T05:06:48;39.95;;;21.85;;
46439;SDS011;32138;50.966;6.968;2023-11-18T05:08:19;31.92;;;22.13;;
46439;SDS011;32138;50.966;6.968;2023-11-18T05:09:50;34.10;;;22.05;;
46439;SDS011;32138;50.966;6.968;2023-11-18T05:11:21;30.10;;;21.45;;
46439;SDS011;32138;50.966;6.968;2023-11-18T05:12:52;35.10;;;23.90;;
46439;SDS011;32138;50.966;6.968;2023-11-18T05:14:25;36.50;;;22.67;;
46439;SDS011;32138;50.966;6.968;2023-11-18T05:15:56;32.17;;;21.60;;
46439;SDS011;32138;50.966;6.968;2023-11-18T05:17:27;38.55;;;21.92;;
46439;SDS011;32138;50.966;6.968;2023-11-18T05:18:58;32.95;;;22.08;;
46439;SDS011;32138;50.966;6.968;2023-11-18T05:20:28;38.53;;;23.15;;
46439;SDS011;32138;50.966;6.968;2023-11-18T05:21:59;31.92;;;21.23;;
46439;SDS011;32138;50.966;6.968;2023-11-18T05:23:30;32.60;;;21.85;;
46439;SDS011;32138;50.966;6.968;2023-11-18T05:25:02;33.63;;;21.70;;
46439;SDS011;32138;50.966;6.968;2023-11-18T05:26:34;34.42;;;22.10;;
46439;SDS011;32138;50.966;6.968;2023-11-18T05:28:05;32.67;;;21.15;;
46439;SDS011;32138;50.966;6.968;2023-11-18T05:29:39;33.92;;;21.27;;
46439;SDS011;32138;50.966;6.968;2023-11-18T05:31:11;40.67;;;21.88;;
46439;SDS011;32138;50.966;6.968;2023-11-18T05:32:42;35.38;;;22.15;;
46439;SDS011;32138;50.966;6.968;2023-11-18T05:34:13;33.13;;;22.08;;
46439;SDS011;32138;50.966;6.968;2023-11-18T05:35:44;35.85;;;21.65;;
46439;SDS011;32138;50.966;6.968;2023-11-18T05:37:19;35.28;;;22.98;;
46439;SDS011;32138;50.966;6.968;2023-11-18T05:38:51;39.22;;;23.20;;
46439;SDS011;32138;50.966;6.968;2023-11-18T05:40:22;31.38;;;20.30;;
46439;SDS011;32138;50.966;6.968;2023-11-18T05:41:53;31.80;;;19.83;;
46439;SDS011;32138;50.966;6.968;2023-11-18T05:43:26;32.13;;;20.33;;
46439;SDS011;32138;50.966;6.968;2023-11-18T05:45:01;30.77;;;19.50;;
46439;SDS011;32138;50.966;6.968;2023-11-18T05:46:32;34.65;;;22.08;;
46439;SDS011;32138;50.966;6.968;2023-11-18T05:48:03;36.28;;;21.08;;
46439;SDS011;32138;50.966;6.968;2023-11-18T05:49:34;39.67;;;23.98;;
46439;SDS011;32138;50.966;6.968;2023-11-18T05:51:05;33.28;;;21.05;;
46439;SDS011;32138;50.966;6.968;2023-11-18T05:52:35;32.38;;;20.98;;
46439;SDS011;32138;50.966;6.968;2023-11-18T05:54:06;32.60;;;20.77;;
46439;SDS011;32138;50.966;6.968;2023-11-18T05:55:37;32.90;;;21.75;;
46439;SDS011;32138;50.966;6.968;2023-11-18T05:57:08;31.55;;;20.58;;
46439;SDS011;32138;50.966;6.968;2023-11-18T05:58:38;37.08;;;21.00;;
46439;SDS011;32138;50.966;6.968;2023-11-18T06:00:10;35.58;;;21.30;;
46439;SDS011;32138;50.966;6.968;2023-11-18T06:01:45;32.33;;;20.27;;
46439;SDS011;32138;50.966;6.968;2023-11-18T06:03:17;35.25;;;20.48;;
46439;SDS011;32138;50.966;6.968;2023-11-18T06:04:48;37.75;;;21.35;;
46439;SDS011;32138;50.966;6.968;2023-11-18T06:06:19;37.55;;;20.67;;
46439;SDS011;32138;50.966;6.968;2023-11-18T06:07:51;30.42;;;19.80;;
46439;SDS011;32138;50.966;6.968;2023-11-18T06:09:22;34.10;;;21.25;;
46439;SDS011;32138;50.966;6.968;2023-11-18T06:10:55;34.83;;;20.38;;
46439;SDS011;32138;50.966;6.968;2023-11-18T06:12:26;32.53;;;19.90;;
46439;SDS011;32138;50.966;6.968;2023-11-18T06:13:57;29.65;;;20.13;;
46439;SDS011;32138;50.966;6.968;2023-11-18T06:15:28;33.78;;;21.02;;
46439;SDS011;32138;50.966;6.968;2023-11-18T06:16:59;34.67;;;21.38;;
46439;SDS011;32138;50.966;6.968;2023-11-18T06:18:30;30.98;;;20.75;;
46439;SDS011;32138;50.966;6.968;2023-11-18T06:20:02;30.85;;;19.58;;
46439;SDS011;32138;50.966;6.968;2023-11-18T06:21:36;33.70;;;21.33;;
46439;SDS011;32138;50.966;6.968;2023-11-18T06:23:07;34.75;;;20.83;;
46439;SDS011;32138;50.966;6.968;2023-11-18T06:24:37;31.17;;;19.38;;
46439;SDS011;32138;50.966;6.968;2023-11-18T06:26:09;30.90;;;21.10;;
46439;SDS011;32138;50.966;6.968;2023-11-18T06:27:40;28.95;;;19.60;;
46439;SDS011;32138;50.966;6.968;2023-11-18T06:29:15;29.75;;;19.38;;
46439;SDS011;32138;50.966;6.968;2023-11-18T06:30:46;27.65;;;17.85;;
46439;SDS011;32138;50.966;6.968;2023-11-18T06:32:17;30.67;;;18.45;;
46439;SDS011;32138;50.966;6.968;2023-11-18T06:33:47;31.17;;;21.20;;
46439;SDS011;32138;50.966;6.968;2023-11-18T06:35:19;28.60;;;18.58;;
46439;SDS011;32138;50.966;6.968;2023-11-18T06:36:51;36.72;;;21.83;;
46439;SDS011;32138;50.966;6.968;2023-11-18T06:38:22;34.40;;;20.17;;
46439;SDS011;32138;50.966;6.968;2023-11-18T06:39:54;33.63;;;19.42;;
46439;SDS011;32138;50.966;6.968;2023-11-18T06:41:25;34.33;;;20.08;;
46439;SDS011;32138;50.966;6.968;2023-11-18T06:43:03;31.25;;;19.65;;
46439;SDS011;32138;50.966;6.968;2023-11-18T06:44:40;26.88;;;18.58;;
46439;SDS011;32138;50.966;6.968;2023-11-18T06:46:11;35.55;;;19.80;;
46439;SDS011;32138;50.966;6.968;2023-11-18T06:47:44;35.67;;;21.63;;
46439;SDS011;32138;50.966;6.968;2023-11-18T06:49:15;33.65;;;22.15;;
46439;SDS011;32138;50.966;6.968;2023-11-18T06:50:46;35.78;;;20.23;;
46439;SDS011;32138;50.966;6.968;2023-11-18T06:52:17;29.67;;;19.33;;
46439;SDS011;32138;50.966;6.968;2023-11-18T06:53:49;29.98;;;19.20;;
46439;SDS011;32138;50.966;6.968;2023-11-18T06:55:25;28.17;;;19.20;;
46439;SDS011;32138;50.966;6.968;2023-11-18T06:56:56;31.65;;;18.83;;
46439;SDS011;32138;50.966;6.968;2023-11-18T06:58:27;28.77;;;18.52;;
46439;SDS011;32138;50.966;6.968;2023-11-18T06:59:58;31.52;;;18.90;;
46439;SDS011;32138;50.966;6.968;2023-11-18T07:01:29;28.80;;;18.70;;
46439;SDS011;32138;50.966;6.968;2023-11-18T07:03:00;28.75;;;18.05;;
46439;SDS011;32138;50.966;6.968;2023-11-18T07:04:31;27.00;;;18.02;;
46439;SDS011;32138;50.966;6.968;2023-11-18T07:06:03;28.30;;;18.42;;
46439;SDS011;32138;50.966;6.968;2023-11-18T07:07:35;34.20;;;20.65;;
46439;SDS011;32138;50.966;6.968;2023-11-18T07:09:07;28.67;;;18.63;;
46439;SDS011;32138;50.966;6.968;2023-11-18T07:10:50;32.28;;;20.00;;
46439;SDS011;32138;50.966;6.968;2023-11-18T07:12:21;27.73;;;19.35;;
46439;SDS011;32138;50.966;6.968;2023-11-18T07:13:52;31.83;;;20.38;;
46439;SDS011;32138;50.966;6.968;2023-11-18T07:15:26;29.60;;;17.70;;
46439;SDS011;32138;50.966;6.968;2023-11-18T07:16:57;34.70;;;19.98;;
46439;SDS011;32138;50.966;6.968;2023-11-18T07:18:27;26.80;;;18.17;;
46439;SDS011;32138;50.966;6.968;2023-11-18T07:20:00;26.42;;;18.13;;
46439;SDS011;32138;50.966;6.968;2023-11-18T07:21:31;27.90;;;17.27;;
46439;SDS011;32138;50.966;6.968;2023-11-18T07:23:03;31.95;;;17.85;;
46439;SDS011;32138;50.966;6.968;2023-11-18T07:24:34;28.83;;;17.50;;
46439;SDS011;32138;50.966;6.968;2023-11-18T07:26:05;26.27;;;17.20;;
46439;SDS011;32138;50.966;6.968;2023-11-18T07:27:35;26.50;;;17.92;;
46439;SDS011;32138;50.966;6.968;2023-11-18T07:29:06;27.33;;;17.05;;
46439;SDS011;32138;50.966;6.968;2023-11-18T07:30:37;28.65;;;18.88;;
46439;SDS011;32138;50.966;6.968;2023-11-18T07:32:08;28.52;;;17.08;;
46439;SDS011;32138;50.966;6.968;2023-11-18T07:33:40;25.88;;;16.90;;
46439;SDS011;32138;50.966;6.968;2023-11-18T07:35:14;29.38;;;18.65;;
46439;SDS011;32138;50.966;6.968;2023-11-18T07:36:45;26.83;;;16.20;;
46439;SDS011;32138;50.966;6.968;2023-11-18T07:38:17;27.77;;;17.48;;
46439;SDS011;32138;50.966;6.968;2023-11-18T07:39:50;30.33;;;16.63;;
46439;SDS011;32138;50.966;6.968;2023-11-18T07:41:20;24.30;;;16.50;;
46439;SDS011;32138;50.966;6.968;2023-11-18T07:42:56;23.75;;;16.38;;
46439;SDS011;32138;50.966;6.968;2023-11-18T07:44:29;29.73;;;18.77;;
46439;SDS011;32138;50.966;6.968;2023-11-18T07:46:03;25.35;;;17.02;;
46439;SDS011;32138;50.966;6.968;2023-11-18T07:47:34;26.05;;;16.17;;
46439;SDS011;32138;50.966;6.968;2023-11-18T07:49:04;23.58;;;16.55;;
46439;SDS011;32138;50.966;6.968;2023-11-18T07:50:36;30.38;;;16.80;;
46439;SDS011;32138;50.966;6.968;2023-11-18T07:52:11;25.45;;;16.83;;
46439;SDS011;32138;50.966;6.968;2023-11-18T07:53:41;22.13;;;14.57;;
46439;SDS011;32138;50.966;6.968;2023-11-18T07:55:13;24.02;;;15.18;;
46439;SDS011;32138;50.966;6.968;2023-11-18T07:56:44;25.90;;;16.33;;
46439;SDS011;32138;50.966;6.968;2023-11-18T07:58:17;24.00;;;16.75;;
46439;SDS011;32138;50.966;6.968;2023-11-18T07:59:48;23.05;;;15.05;;
46439;SDS011;32138;50.966;6.968;2023-11-18T08:01:20;24.67;;;15.55;;
46439;SDS011;32138;50.966;6.968;2023-11-18T08:02:53;24.33;;;15.43;;
46439;SDS011;32138;50.966;6.968;2023-11-18T08:04:24;21.15;;;14.45;;
46439;SDS011;32138;50.966;6.968;2023-11-18T08:05:55;26.20;;;16.02;;
46439;SDS011;32138;50.966;6.968;2023-11-18T08:07:26;25.20;;;16.35;;
46439;SDS011;32138;50.966;6.968;2023-11-18T08:08:57;23.05;;;15.20;;
46439;SDS011;32138;50.966;6.968;2023-11-18T08:10:28;21.13;;;13.93;;
46439;SDS011;32138;50.966;6.968;2023-11-18T08:12:02;24.05;;;14.00;;
46439;SDS011;32138;50.966;6.968;2023-11-18T08:13:35;22.25;;;14.90;;
46439;SDS011;32138;50.966;6.968;2023-11-18T08:15:06;25.55;;;15.57;;
46439;SDS011;32138;50.966;6.968;2023-11-18T08:16:39;24.17;;;14.48;;
46439;SDS011;32138;50.966;6.968;2023-11-18T08:18:10;22.90;;;14.00;;
46439;SDS011;32138;50.966;6.968;2023-11-18T08:19:41;21.90;;;15.88;;
46439;SDS011;32138;50.966;6.968;2023-11-18T08:21:11;23.40;;;15.63;;
46439;SDS011;32138;50.966;6.968;2023-11-18T08:22:42;19.77;;;14.07;;
46439;SDS011;32138;50.966;6.968;2023-11-18T08:24:14;23.67;;;15.45;;
46439;SDS011;32138;50.966;6.968;2023-11-18T08:25:44;23.13;;;14.80;;
46439;SDS011;32138;50.966;6.968;2023-11-18T08:27:16;20.92;;;14.80;;
46439;SDS011;32138;50.966;6.968;2023-11-18T08:28:47;20.90;;;15.30;;
46439;SDS011;32138;50.966;6.968;2023-11-18T08:30:18;20.02;;;13.40;;
46439;SDS011;32138;50.966;6.968;2023-11-18T08:31:50;22.75;;;14.13;;
46439;SDS011;32138;50.966;6.968;2023-11-18T08:33:21;21.10;;;13.32;;
46439;SDS011;32138;50.966;6.968;2023-11-18T08:34:55;21.58;;;13.88;;
46439;SDS011;32138;50.966;6.968;2023-11-18T08:36:26;23.08;;;14.32;;
46439;SDS011;32138;50.966;6.968;2023-11-18T08:37:57;21.85;;;14.32;;
46439;SDS011;32138;50.966;6.968;2023-11-18T08:39:29;22.77;;;13.80;;
46439;SDS011;32138;50.966;6.968;2023-11-18T08:41:01;23.58;;;12.75;;
46439;SDS011;32138;50.966;6.968;2023-11-18T08:42:32;22.40;;;14.75;;
46439;SDS011;32138;50.966;6.968;2023-11-18T08:44:04;22.30;;;14.25;;
46439;SDS011;32138;50.966;6.968;2023-11-18T08:45:36;22.67;;;14.60;;
46439;SDS011;32138;50.966;6.968;2023-11-18T08:47:07;22.10;;;14.68;;
46439;SDS011;32138;50.966;6.968;2023-11-18T08:48:38;23.45;;;13.90;;
46439;SDS011;32138;50.966;6.968;2023-11-18T08:50:09;27.52;;;15.52;;
46439;SDS011;32138;50.966;6.968;2023-11-18T08:51:42;22.30;;;13.75;;
46439;SDS011;32138;50.966;6.968;2023-11-18T08:53:13;21.05;;;13.88;;
46439;SDS011;32138;50.966;6.968;2023-11-18T08:54:47;22.40;;;13.43;;
46439;SDS011;32138;50.966;6.968;2023-11-18T08:56:39;21.33;;;13.77;;
46439;SDS011;32138;50.966;6.968;2023-11-18T08:58:11;22.70;;;12.90;;